sensor_id;sensor_type;location;lat;lon;timestamp;temperature;humidity
75985;DHT22;65033;44.660;37.758;2023-06-10T00:00:09;23.52;66.58
75985;DHT22;65033;44.660;37.758;2023-06-10T00:01:21;23.52;66.65
75985;DHT22;65033;44.660;37.758;2023-06-10T00:02:29;23.47;67.88
75985;DHT22;65033;44.660;37.758;2023-06-10T00:03:34;23.45;67.38
75985;DHT22;65033;44.660;37.758;2023-06-10T00:04:46;23.47;67.25
75985;DHT22;65033;44.660;37.758;2023-06-10T00:05:57;23.42;65.73
75985;DHT22;65033;44.660;37.758;2023-06-10T00:07:16;23.42;66.15
75985;DHT22;65033;44.660;37.758;2023-06-10T00:08:32;23.40;66.01
75985;DHT22;65033;44.660;37.758;2023-06-10T00:09:42;23.40;67.72
75985;DHT22;65033;44.660;37.758;2023-06-10T00:10:47;23.37;67.43
75985;DHT22;65033;44.660;37.758;2023-06-10T00:11:57;23.39;66.72
75985;DHT22;65033;44.660;37.758;2023-06-10T00:13:14;23.49;66.56
75985;DHT22;65033;44.660;37.758;2023-06-10T00:14:29;23.57;66.33
75985;DHT22;65033;44.660;37.758;2023-06-10T00:15:33;23.67;66.11
75985;DHT22;65033;44.660;37.758;2023-06-10T00:16:37;23.71;68.08
75985;DHT22;65033;44.660;37.758;2023-06-10T00:17:42;23.82;67.51
75985;DHT22;65033;44.660;37.758;2023-06-10T00:18:53;23.85;67.45
75985;DHT22;65033;44.660;37.758;2023-06-10T00:20:12;23.87;66.02
75985;DHT22;65033;44.660;37.758;2023-06-10T00:21:17;23.82;66.39
75985;DHT22;65033;44.660;37.758;2023-06-10T00:22:21;23.79;66.86
75985;DHT22;65033;44.660;37.758;2023-06-10T00:23:26;23.79;68.55
75985;DHT22;65033;44.660;37.758;2023-06-10T00:24:39;23.75;66.69
75985;DHT22;65033;44.660;37.758;2023-06-10T00:25:49;23.72;67.27
75985;DHT22;65033;44.660;37.758;2023-06-10T00:26:54;23.71;67.59
75985;DHT22;65033;44.660;37.758;2023-06-10T00:27:57;23.66;69.23
75985;DHT22;65033;44.660;37.758;2023-06-10T00:29:01;23.60;71.03
75985;DHT22;65033;44.660;37.758;2023-06-10T00:30:06;23.52;70.07
75985;DHT22;65033;44.660;37.758;2023-06-10T00:31:10;23.42;69.68
75985;DHT22;65033;44.660;37.758;2023-06-10T00:32:17;23.37;69.19
75985;DHT22;65033;44.660;37.758;2023-06-10T00:33:25;23.31;73.62
75985;DHT22;65033;44.660;37.758;2023-06-10T00:34:29;23.17;70.04
75985;DHT22;65033;44.660;37.758;2023-06-10T00:35:33;23.10;71.60
75985;DHT22;65033;44.660;37.758;2023-06-10T00:36:37;22.94;70.86
75985;DHT22;65033;44.660;37.758;2023-06-10T00:37:41;22.86;70.00
75985;DHT22;65033;44.660;37.758;2023-06-10T00:38:44;22.79;70.55
75985;DHT22;65033;44.660;37.758;2023-06-10T00:39:50;22.72;71.43
75985;DHT22;65033;44.660;37.758;2023-06-10T00:40:54;22.70;72.15
75985;DHT22;65033;44.660;37.758;2023-06-10T00:42:02;22.58;73.83
75985;DHT22;65033;44.660;37.758;2023-06-10T00:43:10;22.40;73.25
75985;DHT22;65033;44.660;37.758;2023-06-10T00:44:18;22.28;73.88
75985;DHT22;65033;44.660;37.758;2023-06-10T00:45:25;22.18;74.92
75985;DHT22;65033;44.660;37.758;2023-06-10T00:46:29;22.09;72.87
75985;DHT22;65033;44.660;37.758;2023-06-10T00:47:41;22.06;75.19
75985;DHT22;65033;44.660;37.758;2023-06-10T00:48:45;22.04;73.81
75985;DHT22;65033;44.660;37.758;2023-06-10T00:49:50;22.05;70.89
75985;DHT22;65033;44.660;37.758;2023-06-10T00:50:54;22.03;71.52
75985;DHT22;65033;44.660;37.758;2023-06-10T00:51:58;22.01;70.03
75985;DHT22;65033;44.660;37.758;2023-06-10T00:53:02;22.01;71.67
75985;DHT22;65033;44.660;37.758;2023-06-10T00:54:06;22.01;70.40
75985;DHT22;65033;44.660;37.758;2023-06-10T00:55:11;22.04;70.70
75985;DHT22;65033;44.660;37.758;2023-06-10T00:56:17;22.02;71.77
75985;DHT22;65033;44.660;37.758;2023-06-10T00:57:25;22.02;70.25
75985;DHT22;65033;44.660;37.758;2023-06-10T00:58:29;21.98;70.77
75985;DHT22;65033;44.660;37.758;2023-06-10T00:59:34;21.95;71.99
75985;DHT22;65033;44.660;37.758;2023-06-10T01:00:39;21.91;72.16
75985;DHT22;65033;44.660;37.758;2023-06-10T01:01:50;21.84;71.77
75985;DHT22;65033;44.660;37.758;2023-06-10T01:02:57;21.82;72.62
75985;DHT22;65033;44.660;37.758;2023-06-10T01:04:05;21.80;71.68
75985;DHT22;65033;44.660;37.758;2023-06-10T01:05:09;21.73;73.92
75985;DHT22;65033;44.660;37.758;2023-06-10T01:06:23;21.67;74.42
75985;DHT22;65033;44.660;37.758;2023-06-10T01:07:37;21.64;75.09
75985;DHT22;65033;44.660;37.758;2023-06-10T01:08:52;21.60;75.27
75985;DHT22;65033;44.660;37.758;2023-06-10T01:10:02;21.55;74.38
75985;DHT22;65033;44.660;37.758;2023-06-10T01:11:18;21.57;73.48
75985;DHT22;65033;44.660;37.758;2023-06-10T01:12:31;21.58;74.54
75985;DHT22;65033;44.660;37.758;2023-06-10T01:13:43;21.58;74.31
75985;DHT22;65033;44.660;37.758;2023-06-10T01:14:54;21.58;72.52
75985;DHT22;65033;44.660;37.758;2023-06-10T01:15:59;21.57;72.64
75985;DHT22;65033;44.660;37.758;2023-06-10T01:17:03;21.57;74.21
75985;DHT22;65033;44.660;37.758;2023-06-10T01:18:08;21.55;73.78
75985;DHT22;65033;44.660;37.758;2023-06-10T01:19:24;21.54;74.09
75985;DHT22;65033;44.660;37.758;2023-06-10T01:20:30;21.53;74.27
75985;DHT22;65033;44.660;37.758;2023-06-10T01:21:42;21.49;75.47
75985;DHT22;65033;44.660;37.758;2023-06-10T01:22:54;21.46;75.07
75985;DHT22;65033;44.660;37.758;2023-06-10T01:24:06;21.44;73.80
75985;DHT22;65033;44.660;37.758;2023-06-10T01:25:33;21.43;76.31
75985;DHT22;65033;44.660;37.758;2023-06-10T01:26:45;21.42;74.40
75985;DHT22;65033;44.660;37.758;2023-06-10T01:27:49;21.39;75.68
75985;DHT22;65033;44.660;37.758;2023-06-10T01:28:58;21.37;75.76
75985;DHT22;65033;44.660;37.758;2023-06-10T01:30:11;21.35;74.75
75985;DHT22;65033;44.660;37.758;2023-06-10T01:31:20;21.32;76.22
75985;DHT22;65033;44.660;37.758;2023-06-10T01:32:41;21.35;76.74
75985;DHT22;65033;44.660;37.758;2023-06-10T01:33:52;21.37;76.43
75985;DHT22;65033;44.660;37.758;2023-06-10T01:35:02;21.37;76.93
75985;DHT22;65033;44.660;37.758;2023-06-10T01:36:13;21.34;76.47
75985;DHT22;65033;44.660;37.758;2023-06-10T01:37:26;21.38;75.72
75985;DHT22;65033;44.660;37.758;2023-06-10T01:38:33;21.39;75.18
75985;DHT22;65033;44.660;37.758;2023-06-10T01:39:42;21.44;74.88
75985;DHT22;65033;44.660;37.758;2023-06-10T01:40:46;21.47;75.18
75985;DHT22;65033;44.660;37.758;2023-06-10T01:41:56;21.44;75.30
75985;DHT22;65033;44.660;37.758;2023-06-10T01:43:01;21.42;75.40
75985;DHT22;65033;44.660;37.758;2023-06-10T01:44:05;21.40;76.47
75985;DHT22;65033;44.660;37.758;2023-06-10T01:45:09;21.38;76.66
75985;DHT22;65033;44.660;37.758;2023-06-10T01:46:13;21.35;77.50
75985;DHT22;65033;44.660;37.758;2023-06-10T01:47:17;21.32;77.76
75985;DHT22;65033;44.660;37.758;2023-06-10T01:48:22;21.30;77.18
75985;DHT22;65033;44.660;37.758;2023-06-10T01:49:25;21.28;77.64
75985;DHT22;65033;44.660;37.758;2023-06-10T01:50:30;21.24;76.85
75985;DHT22;65033;44.660;37.758;2023-06-10T01:51:33;21.25;77.67
75985;DHT22;65033;44.660;37.758;2023-06-10T01:52:38;21.29;76.95
75985;DHT22;65033;44.660;37.758;2023-06-10T01:53:42;21.29;76.24
75985;DHT22;65033;44.660;37.758;2023-06-10T01:54:46;21.35;76.04
75985;DHT22;65033;44.660;37.758;2023-06-10T01:55:49;21.39;75.61
75985;DHT22;65033;44.660;37.758;2023-06-10T01:56:53;21.43;76.05
75985;DHT22;65033;44.660;37.758;2023-06-10T01:57:57;21.44;77.02
75985;DHT22;65033;44.660;37.758;2023-06-10T01:59:00;21.43;76.12
75985;DHT22;65033;44.660;37.758;2023-06-10T02:00:06;21.44;75.03
75985;DHT22;65033;44.660;37.758;2023-06-10T02:01:16;21.50;75.22
75985;DHT22;65033;44.660;37.758;2023-06-10T02:02:21;21.51;74.70
75985;DHT22;65033;44.660;37.758;2023-06-10T02:03:25;21.51;75.06
75985;DHT22;65033;44.660;37.758;2023-06-10T02:04:29;21.52;75.16
75985;DHT22;65033;44.660;37.758;2023-06-10T02:05:34;21.53;75.15
75985;DHT22;65033;44.660;37.758;2023-06-10T02:06:38;21.53;75.76
75985;DHT22;65033;44.660;37.758;2023-06-10T02:07:43;21.51;75.41
75985;DHT22;65033;44.660;37.758;2023-06-10T02:08:46;21.52;75.42
75985;DHT22;65033;44.660;37.758;2023-06-10T02:09:50;21.54;75.23
75985;DHT22;65033;44.660;37.758;2023-06-10T02:10:54;21.52;75.92
75985;DHT22;65033;44.660;37.758;2023-06-10T02:11:58;21.52;75.76
75985;DHT22;65033;44.660;37.758;2023-06-10T02:13:01;21.54;76.12
75985;DHT22;65033;44.660;37.758;2023-06-10T02:14:05;21.54;76.95
75985;DHT22;65033;44.660;37.758;2023-06-10T02:15:09;21.55;77.11
75985;DHT22;65033;44.660;37.758;2023-06-10T02:16:12;21.54;77.19
75985;DHT22;65033;44.660;37.758;2023-06-10T02:17:17;21.55;78.53
75985;DHT22;65033;44.660;37.758;2023-06-10T02:18:21;21.57;80.24
75985;DHT22;65033;44.660;37.758;2023-06-10T02:19:25;21.58;80.46
75985;DHT22;65033;44.660;37.758;2023-06-10T02:20:30;21.58;79.56
75985;DHT22;65033;44.660;37.758;2023-06-10T02:21:33;21.57;80.77
75985;DHT22;65033;44.660;37.758;2023-06-10T02:22:46;21.58;80.24
75985;DHT22;65033;44.660;37.758;2023-06-10T02:23:50;21.55;80.83
75985;DHT22;65033;44.660;37.758;2023-06-10T02:24:53;21.55;81.07
75985;DHT22;65033;44.660;37.758;2023-06-10T02:26:02;21.53;80.52
75985;DHT22;65033;44.660;37.758;2023-06-10T02:27:08;21.57;80.79
75985;DHT22;65033;44.660;37.758;2023-06-10T02:28:13;21.58;80.93
75985;DHT22;65033;44.660;37.758;2023-06-10T02:29:17;21.52;81.68
75985;DHT22;65033;44.660;37.758;2023-06-10T02:30:21;21.48;81.69
75985;DHT22;65033;44.660;37.758;2023-06-10T02:31:25;21.42;81.71
75985;DHT22;65033;44.660;37.758;2023-06-10T02:32:29;21.38;81.92
75985;DHT22;65033;44.660;37.758;2023-06-10T02:33:33;21.34;82.20
75985;DHT22;65033;44.660;37.758;2023-06-10T02:34:37;21.33;81.72
75985;DHT22;65033;44.660;37.758;2023-06-10T02:35:42;21.32;81.90
75985;DHT22;65033;44.660;37.758;2023-06-10T02:36:46;21.32;81.83
75985;DHT22;65033;44.660;37.758;2023-06-10T02:37:59;21.32;82.13
75985;DHT22;65033;44.660;37.758;2023-06-10T02:39:03;21.32;82.10
75985;DHT22;65033;44.660;37.758;2023-06-10T02:40:12;21.35;81.26
75985;DHT22;65033;44.660;37.758;2023-06-10T02:41:17;21.39;80.97
75985;DHT22;65033;44.660;37.758;2023-06-10T02:42:22;21.44;81.46
75985;DHT22;65033;44.660;37.758;2023-06-10T02:43:27;21.47;80.98
75985;DHT22;65033;44.660;37.758;2023-06-10T02:44:34;21.51;79.76
75985;DHT22;65033;44.660;37.758;2023-06-10T02:45:41;21.58;79.85
75985;DHT22;65033;44.660;37.758;2023-06-10T02:46:46;21.61;80.34
75985;DHT22;65033;44.660;37.758;2023-06-10T02:47:50;21.63;82.22
75985;DHT22;65033;44.660;37.758;2023-06-10T02:48:54;21.65;82.13
75985;DHT22;65033;44.660;37.758;2023-06-10T02:50:06;21.64;81.72
75985;DHT22;65033;44.660;37.758;2023-06-10T02:51:17;21.58;82.92
75985;DHT22;65033;44.660;37.758;2023-06-10T02:52:29;21.54;83.28
75985;DHT22;65033;44.660;37.758;2023-06-10T02:53:34;21.50;83.86
75985;DHT22;65033;44.660;37.758;2023-06-10T02:54:46;21.45;83.14
75985;DHT22;65033;44.660;37.758;2023-06-10T02:55:50;21.43;83.72
75985;DHT22;65033;44.660;37.758;2023-06-10T02:56:54;21.38;85.16
75985;DHT22;65033;44.660;37.758;2023-06-10T02:58:05;21.36;83.03
75985;DHT22;65033;44.660;37.758;2023-06-10T02:59:09;21.38;84.25
75985;DHT22;65033;44.660;37.758;2023-06-10T03:00:14;21.35;84.89
75985;DHT22;65033;44.660;37.758;2023-06-10T03:01:22;21.36;84.26
75985;DHT22;65033;44.660;37.758;2023-06-10T03:02:37;21.42;83.47
75985;DHT22;65033;44.660;37.758;2023-06-10T03:03:45;21.47;83.71
75985;DHT22;65033;44.660;37.758;2023-06-10T03:04:53;21.59;83.94
75985;DHT22;65033;44.660;37.758;2023-06-10T03:05:57;21.63;82.83
75985;DHT22;65033;44.660;37.758;2023-06-10T03:07:03;21.66;82.68
75985;DHT22;65033;44.660;37.758;2023-06-10T03:08:13;21.66;83.00
75985;DHT22;65033;44.660;37.758;2023-06-10T03:09:20;21.73;82.30
75985;DHT22;65033;44.660;37.758;2023-06-10T03:10:29;21.77;82.45
75985;DHT22;65033;44.660;37.758;2023-06-10T03:11:33;21.77;81.98
75985;DHT22;65033;44.660;37.758;2023-06-10T03:12:37;21.81;82.49
75985;DHT22;65033;44.660;37.758;2023-06-10T03:13:40;21.87;83.29
75985;DHT22;65033;44.660;37.758;2023-06-10T03:14:52;21.92;82.20
75985;DHT22;65033;44.660;37.758;2023-06-10T03:15:56;21.97;83.29
75985;DHT22;65033;44.660;37.758;2023-06-10T03:17:01;22.05;82.00
75985;DHT22;65033;44.660;37.758;2023-06-10T03:18:09;22.10;82.40
75985;DHT22;65033;44.660;37.758;2023-06-10T03:19:16;22.18;81.88
75985;DHT22;65033;44.660;37.758;2023-06-10T03:20:29;22.22;81.33
75985;DHT22;65033;44.660;37.758;2023-06-10T03:21:34;22.27;80.19
75985;DHT22;65033;44.660;37.758;2023-06-10T03:22:38;22.34;80.21
75985;DHT22;65033;44.660;37.758;2023-06-10T03:23:46;22.38;80.40
75985;DHT22;65033;44.660;37.758;2023-06-10T03:24:54;22.41;80.77
75985;DHT22;65033;44.660;37.758;2023-06-10T03:25:58;22.44;79.53
75985;DHT22;65033;44.660;37.758;2023-06-10T03:27:06;22.48;80.33
75985;DHT22;65033;44.660;37.758;2023-06-10T03:28:14;22.49;80.72
75985;DHT22;65033;44.660;37.758;2023-06-10T03:29:18;22.50;80.52
75985;DHT22;65033;44.660;37.758;2023-06-10T03:30:22;22.50;80.14
75985;DHT22;65033;44.660;37.758;2023-06-10T03:31:26;22.52;80.64
75985;DHT22;65033;44.660;37.758;2023-06-10T03:32:31;22.51;80.98
75985;DHT22;65033;44.660;37.758;2023-06-10T03:33:38;22.50;81.44
75985;DHT22;65033;44.660;37.758;2023-06-10T03:34:45;22.52;80.98
75985;DHT22;65033;44.660;37.758;2023-06-10T03:35:49;22.50;80.14
75985;DHT22;65033;44.660;37.758;2023-06-10T03:36:53;22.52;81.11
75985;DHT22;65033;44.660;37.758;2023-06-10T03:37:57;22.52;80.83
75985;DHT22;65033;44.660;37.758;2023-06-10T03:39:00;22.52;81.78
75985;DHT22;65033;44.660;37.758;2023-06-10T03:40:08;22.54;82.27
75985;DHT22;65033;44.660;37.758;2023-06-10T03:41:18;22.56;82.33
75985;DHT22;65033;44.660;37.758;2023-06-10T03:42:22;22.57;82.88
75985;DHT22;65033;44.660;37.758;2023-06-10T03:43:34;22.58;81.57
75985;DHT22;65033;44.660;37.758;2023-06-10T03:44:38;22.62;80.35
75985;DHT22;65033;44.660;37.758;2023-06-10T03:45:41;22.68;81.45
75985;DHT22;65033;44.660;37.758;2023-06-10T03:46:46;22.69;80.62
75985;DHT22;65033;44.660;37.758;2023-06-10T03:47:50;22.76;80.37
75985;DHT22;65033;44.660;37.758;2023-06-10T03:48:58;22.82;79.96
75985;DHT22;65033;44.660;37.758;2023-06-10T03:50:05;22.97;81.36
75985;DHT22;65033;44.660;37.758;2023-06-10T03:51:09;23.00;80.51
75985;DHT22;65033;44.660;37.758;2023-06-10T03:52:13;23.00;81.73
75985;DHT22;65033;44.660;37.758;2023-06-10T03:53:17;23.00;81.84
75985;DHT22;65033;44.660;37.758;2023-06-10T03:54:22;22.99;81.53
75985;DHT22;65033;44.660;37.758;2023-06-10T03:55:27;23.00;79.49
75985;DHT22;65033;44.660;37.758;2023-06-10T03:56:33;23.03;79.79
75985;DHT22;65033;44.660;37.758;2023-06-10T03:57:41;23.01;80.01
75985;DHT22;65033;44.660;37.758;2023-06-10T03:58:45;22.99;83.70
75985;DHT22;65033;44.660;37.758;2023-06-10T03:59:49;23.00;83.42
75985;DHT22;65033;44.660;37.758;2023-06-10T04:00:53;23.02;82.07
75985;DHT22;65033;44.660;37.758;2023-06-10T04:02:09;23.05;82.81
75985;DHT22;65033;44.660;37.758;2023-06-10T04:03:16;23.10;82.26
75985;DHT22;65033;44.660;37.758;2023-06-10T04:04:26;23.11;80.78
75985;DHT22;65033;44.660;37.758;2023-06-10T04:05:33;23.16;82.32
75985;DHT22;65033;44.660;37.758;2023-06-10T04:06:37;23.18;82.75
75985;DHT22;65033;44.660;37.758;2023-06-10T04:07:43;23.21;80.66
75985;DHT22;65033;44.660;37.758;2023-06-10T04:08:49;23.25;81.39
75985;DHT22;65033;44.660;37.758;2023-06-10T04:09:57;23.34;78.37
75985;DHT22;65033;44.660;37.758;2023-06-10T04:11:02;23.40;79.20
75985;DHT22;65033;44.660;37.758;2023-06-10T04:12:07;23.54;81.23
75985;DHT22;65033;44.660;37.758;2023-06-10T04:13:17;23.73;79.77
75985;DHT22;65033;44.660;37.758;2023-06-10T04:14:29;23.84;78.79
75985;DHT22;65033;44.660;37.758;2023-06-10T04:15:33;23.91;78.99
75985;DHT22;65033;44.660;37.758;2023-06-10T04:16:41;24.01;79.41
75985;DHT22;65033;44.660;37.758;2023-06-10T04:17:49;24.21;79.10
75985;DHT22;65033;44.660;37.758;2023-06-10T04:18:58;24.39;77.82
75985;DHT22;65033;44.660;37.758;2023-06-10T04:20:06;24.55;79.54
75985;DHT22;65033;44.660;37.758;2023-06-10T04:21:17;24.73;76.65
75985;DHT22;65033;44.660;37.758;2023-06-10T04:22:22;24.73;78.17
75985;DHT22;65033;44.660;37.758;2023-06-10T04:23:30;24.91;77.04
75985;DHT22;65033;44.660;37.758;2023-06-10T04:24:37;25.07;77.58
75985;DHT22;65033;44.660;37.758;2023-06-10T04:25:41;25.06;76.42
75985;DHT22;65033;44.660;37.758;2023-06-10T04:26:46;25.06;74.25
75985;DHT22;65033;44.660;37.758;2023-06-10T04:27:50;25.22;77.85
75985;DHT22;65033;44.660;37.758;2023-06-10T04:28:53;25.45;76.11
75985;DHT22;65033;44.660;37.758;2023-06-10T04:29:58;25.48;74.86
75985;DHT22;65033;44.660;37.758;2023-06-10T04:31:02;25.40;74.74
75985;DHT22;65033;44.660;37.758;2023-06-10T04:32:10;25.32;76.51
75985;DHT22;65033;44.660;37.758;2023-06-10T04:33:17;25.29;75.70
75985;DHT22;65033;44.660;37.758;2023-06-10T04:34:21;25.29;76.31
75985;DHT22;65033;44.660;37.758;2023-06-10T04:35:24;25.31;76.34
75985;DHT22;65033;44.660;37.758;2023-06-10T04:36:34;25.33;75.92
75985;DHT22;65033;44.660;37.758;2023-06-10T04:37:41;25.31;75.05
75985;DHT22;65033;44.660;37.758;2023-06-10T04:38:45;25.31;74.76
75985;DHT22;65033;44.660;37.758;2023-06-10T04:39:50;25.34;74.84
75985;DHT22;65033;44.660;37.758;2023-06-10T04:40:53;25.30;74.41
75985;DHT22;65033;44.660;37.758;2023-06-10T04:41:59;25.30;75.45
75985;DHT22;65033;44.660;37.758;2023-06-10T04:43:06;25.28;76.43
75985;DHT22;65033;44.660;37.758;2023-06-10T04:44:13;25.21;75.22
75985;DHT22;65033;44.660;37.758;2023-06-10T04:45:17;25.24;74.11
75985;DHT22;65033;44.660;37.758;2023-06-10T04:46:21;25.22;74.63
75985;DHT22;65033;44.660;37.758;2023-06-10T04:47:25;25.22;75.98
75985;DHT22;65033;44.660;37.758;2023-06-10T04:48:29;25.18;75.67
75985;DHT22;65033;44.660;37.758;2023-06-10T04:49:33;25.19;76.20
75985;DHT22;65033;44.660;37.758;2023-06-10T04:50:38;25.24;75.56
75985;DHT22;65033;44.660;37.758;2023-06-10T04:51:48;25.30;75.85
75985;DHT22;65033;44.660;37.758;2023-06-10T04:52:54;25.34;75.89
75985;DHT22;65033;44.660;37.758;2023-06-10T04:54:02;25.39;76.63
75985;DHT22;65033;44.660;37.758;2023-06-10T04:55:09;25.44;75.91
75985;DHT22;65033;44.660;37.758;2023-06-10T04:56:13;25.48;76.38
75985;DHT22;65033;44.660;37.758;2023-06-10T04:57:20;25.54;74.62
75985;DHT22;65033;44.660;37.758;2023-06-10T04:58:29;25.62;74.52
75985;DHT22;65033;44.660;37.758;2023-06-10T04:59:33;25.63;75.67
75985;DHT22;65033;44.660;37.758;2023-06-10T05:00:45;25.72;75.43
75985;DHT22;65033;44.660;37.758;2023-06-10T05:01:51;25.75;74.18
75985;DHT22;65033;44.660;37.758;2023-06-10T05:02:54;25.75;75.25
75985;DHT22;65033;44.660;37.758;2023-06-10T05:04:01;25.80;73.85
75985;DHT22;65033;44.660;37.758;2023-06-10T05:05:09;25.81;74.84
75985;DHT22;65033;44.660;37.758;2023-06-10T05:06:13;25.86;74.21
75985;DHT22;65033;44.660;37.758;2023-06-10T05:07:16;25.88;74.15
75985;DHT22;65033;44.660;37.758;2023-06-10T05:08:21;25.86;72.89
75985;DHT22;65033;44.660;37.758;2023-06-10T05:09:24;25.81;73.72
75985;DHT22;65033;44.660;37.758;2023-06-10T05:10:29;25.84;73.90
75985;DHT22;65033;44.660;37.758;2023-06-10T05:11:35;25.88;72.35
75985;DHT22;65033;44.660;37.758;2023-06-10T05:12:40;25.95;68.10
75985;DHT22;65033;44.660;37.758;2023-06-10T05:13:46;26.08;69.88
75985;DHT22;65033;44.660;37.758;2023-06-10T05:14:53;26.10;70.34
75985;DHT22;65033;44.660;37.758;2023-06-10T05:15:56;26.15;69.69
75985;DHT22;65033;44.660;37.758;2023-06-10T05:17:01;26.25;69.40
75985;DHT22;65033;44.660;37.758;2023-06-10T05:18:05;26.31;69.29
75985;DHT22;65033;44.660;37.758;2023-06-10T05:19:09;26.35;71.88
75985;DHT22;65033;44.660;37.758;2023-06-10T05:20:13;26.38;70.36
75985;DHT22;65033;44.660;37.758;2023-06-10T05:21:17;26.43;69.78
75985;DHT22;65033;44.660;37.758;2023-06-10T05:22:21;26.47;70.71
75985;DHT22;65033;44.660;37.758;2023-06-10T05:23:29;26.39;71.72
75985;DHT22;65033;44.660;37.758;2023-06-10T05:24:37;26.35;72.72
75985;DHT22;65033;44.660;37.758;2023-06-10T05:25:41;26.36;71.45
75985;DHT22;65033;44.660;37.758;2023-06-10T05:26:45;26.41;71.09
75985;DHT22;65033;44.660;37.758;2023-06-10T05:27:52;26.50;72.21
75985;DHT22;65033;44.660;37.758;2023-06-10T05:28:58;26.47;70.31
75985;DHT22;65033;44.660;37.758;2023-06-10T05:30:06;26.54;70.03
75985;DHT22;65033;44.660;37.758;2023-06-10T05:31:11;26.69;69.45
75985;DHT22;65033;44.660;37.758;2023-06-10T05:32:14;26.79;69.21
75985;DHT22;65033;44.660;37.758;2023-06-10T05:33:18;26.81;69.97
75985;DHT22;65033;44.660;37.758;2023-06-10T05:34:22;26.81;69.56
75985;DHT22;65033;44.660;37.758;2023-06-10T05:35:25;26.77;70.56
75985;DHT22;65033;44.660;37.758;2023-06-10T05:36:29;26.79;69.42
75985;DHT22;65033;44.660;37.758;2023-06-10T05:37:34;26.79;70.86
75985;DHT22;65033;44.660;37.758;2023-06-10T05:38:42;26.64;70.24
75985;DHT22;65033;44.660;37.758;2023-06-10T05:39:49;26.66;69.69
75985;DHT22;65033;44.660;37.758;2023-06-10T05:40:53;26.73;71.32
75985;DHT22;65033;44.660;37.758;2023-06-10T05:41:57;26.60;71.14
75985;DHT22;65033;44.660;37.758;2023-06-10T05:43:03;26.47;71.00
75985;DHT22;65033;44.660;37.758;2023-06-10T05:44:09;26.56;71.51
75985;DHT22;65033;44.660;37.758;2023-06-10T05:45:17;26.58;71.38
75985;DHT22;65033;44.660;37.758;2023-06-10T05:46:20;26.64;71.06
75985;DHT22;65033;44.660;37.758;2023-06-10T05:47:25;26.65;71.52
75985;DHT22;65033;44.660;37.758;2023-06-10T05:48:28;26.65;71.55
75985;DHT22;65033;44.660;37.758;2023-06-10T05:49:33;26.63;71.95
75985;DHT22;65033;44.660;37.758;2023-06-10T05:50:36;26.70;71.65
75985;DHT22;65033;44.660;37.758;2023-06-10T05:51:42;26.72;70.52
75985;DHT22;65033;44.660;37.758;2023-06-10T05:52:45;26.78;71.19
75985;DHT22;65033;44.660;37.758;2023-06-10T05:53:59;26.92;71.04
75985;DHT22;65033;44.660;37.758;2023-06-10T05:55:11;26.80;72.46
75985;DHT22;65033;44.660;37.758;2023-06-10T05:56:21;26.83;71.32
75985;DHT22;65033;44.660;37.758;2023-06-10T05:57:26;26.89;71.85
75985;DHT22;65033;44.660;37.758;2023-06-10T05:58:31;26.87;72.99
75985;DHT22;65033;44.660;37.758;2023-06-10T05:59:38;26.85;71.27
75985;DHT22;65033;44.660;37.758;2023-06-10T06:00:45;26.89;72.11
75985;DHT22;65033;44.660;37.758;2023-06-10T06:01:50;26.93;71.87
75985;DHT22;65033;44.660;37.758;2023-06-10T06:02:55;26.93;72.25
75985;DHT22;65033;44.660;37.758;2023-06-10T06:04:04;26.79;71.79
75985;DHT22;65033;44.660;37.758;2023-06-10T06:05:09;26.81;71.70
75985;DHT22;65033;44.660;37.758;2023-06-10T06:06:13;26.71;73.17
75985;DHT22;65033;44.660;37.758;2023-06-10T06:07:16;26.70;73.82
75985;DHT22;65033;44.660;37.758;2023-06-10T06:08:21;26.73;72.64
75985;DHT22;65033;44.660;37.758;2023-06-10T06:09:25;26.81;71.61
75985;DHT22;65033;44.660;37.758;2023-06-10T06:10:29;26.87;72.54
75985;DHT22;65033;44.660;37.758;2023-06-10T06:11:33;26.89;72.52
75985;DHT22;65033;44.660;37.758;2023-06-10T06:12:37;26.95;72.16
75985;DHT22;65033;44.660;37.758;2023-06-10T06:13:42;27.05;71.98
75985;DHT22;65033;44.660;37.758;2023-06-10T06:14:46;27.02;72.70
75985;DHT22;65033;44.660;37.758;2023-06-10T06:17:17;26.99;72.79
75985;DHT22;65033;44.660;37.758;2023-06-10T06:18:21;26.93;73.04
75985;DHT22;65033;44.660;37.758;2023-06-10T06:19:25;26.82;73.72
75985;DHT22;65033;44.660;37.758;2023-06-10T06:20:29;26.68;74.60
75985;DHT22;65033;44.660;37.758;2023-06-10T06:23:34;26.75;73.09
75985;DHT22;65033;44.660;37.758;2023-06-10T06:24:38;26.82;73.54
75985;DHT22;65033;44.660;37.758;2023-06-10T06:27:17;26.81;73.99
75985;DHT22;65033;44.660;37.758;2023-06-10T06:28:21;26.85;74.62
75985;DHT22;65033;44.660;37.758;2023-06-10T06:29:27;26.98;73.96
75985;DHT22;65033;44.660;37.758;2023-06-10T06:30:37;26.86;74.47
75985;DHT22;65033;44.660;37.758;2023-06-10T06:31:42;26.75;75.39
75985;DHT22;65033;44.660;37.758;2023-06-10T06:33:04;26.79;75.50
75985;DHT22;65033;44.660;37.758;2023-06-10T06:34:29;26.82;75.35
75985;DHT22;65033;44.660;37.758;2023-06-10T06:36:57;26.90;74.23
75985;DHT22;65033;44.660;37.758;2023-06-10T06:38:09;26.91;74.57
75985;DHT22;65033;44.660;37.758;2023-06-10T06:39:33;26.98;73.38
75985;DHT22;65033;44.660;37.758;2023-06-10T06:40:36;27.08;72.98
75985;DHT22;65033;44.660;37.758;2023-06-10T06:41:41;27.17;73.45
75985;DHT22;65033;44.660;37.758;2023-06-10T06:42:45;27.24;73.03
75985;DHT22;65033;44.660;37.758;2023-06-10T06:43:58;27.27;73.29
75985;DHT22;65033;44.660;37.758;2023-06-10T06:45:26;27.32;73.44
75985;DHT22;65033;44.660;37.758;2023-06-10T06:46:29;27.39;72.10
75985;DHT22;65033;44.660;37.758;2023-06-10T06:47:33;27.44;76.04
75985;DHT22;65033;44.660;37.758;2023-06-10T06:48:37;27.34;75.10
75985;DHT22;65033;44.660;37.758;2023-06-10T06:50:02;27.38;73.53
75985;DHT22;65033;44.660;37.758;2023-06-10T06:51:08;27.34;72.75
75985;DHT22;65033;44.660;37.758;2023-06-10T06:52:13;27.45;71.90
75985;DHT22;65033;44.660;37.758;2023-06-10T06:53:17;27.49;71.38
75985;DHT22;65033;44.660;37.758;2023-06-10T06:54:21;27.50;71.43
75985;DHT22;65033;44.660;37.758;2023-06-10T06:55:24;27.58;71.51
75985;DHT22;65033;44.660;37.758;2023-06-10T06:56:32;27.57;73.51
75985;DHT22;65033;44.660;37.758;2023-06-10T06:57:38;27.46;73.19
75985;DHT22;65033;44.660;37.758;2023-06-10T06:58:45;27.19;73.86
75985;DHT22;65033;44.660;37.758;2023-06-10T06:59:50;27.02;73.96